sensor_id;sensor_type;location;lat;lon;timestamp;temperature;humidity
59282;DHT22;45054;52.062;10.010;2022-09-09T00:00:58;14.10;99.90
59282;DHT22;45054;52.062;10.010;2022-09-09T00:03:26;14.10;99.90
59282;DHT22;45054;52.062;10.010;2022-09-09T00:05:55;14.10;99.90
59282;DHT22;45054;52.062;10.010;2022-09-09T00:08:25;14.10;99.90
59282;DHT22;45054;52.062;10.010;2022-09-09T00:10:53;14.10;99.90
59282;DHT22;45054;52.062;10.010;2022-09-09T00:13:22;14.00;99.90
59282;DHT22;45054;52.062;10.010;2022-09-09T00:15:52;14.10;99.90
59282;DHT22;45054;52.062;10.010;2022-09-09T00:18:21;14.00;99.90
59282;DHT22;45054;52.062;10.010;2022-09-09T00:20:49;14.00;99.90
59282;DHT22;45054;52.062;10.010;2022-09-09T00:23:20;13.90;99.90
59282;DHT22;45054;52.062;10.010;2022-09-09T00:25:49;13.80;99.90
59282;DHT22;45054;52.062;10.010;2022-09-09T00:28:18;13.70;99.90
59282;DHT22;45054;52.062;10.010;2022-09-09T00:30:44;13.70;99.90
59282;DHT22;45054;52.062;10.010;2022-09-09T00:33:10;13.60;99.90
59282;DHT22;45054;52.062;10.010;2022-09-09T00:35:37;13.60;99.90
59282;DHT22;45054;52.062;10.010;2022-09-09T00:38:05;13.60;99.90
59282;DHT22;45054;52.062;10.010;2022-09-09T00:40:37;13.60;99.90
59282;DHT22;45054;52.062;10.010;2022-09-09T00:43:08;13.70;99.90
59282;DHT22;45054;52.062;10.010;2022-09-09T00:45:43;13.80;99.90
59282;DHT22;45054;52.062;10.010;2022-09-09T00:48:15;13.80;99.90
59282;DHT22;45054;52.062;10.010;2022-09-09T00:50:44;13.90;99.90
59282;DHT22;45054;52.062;10.010;2022-09-09T00:53:20;13.80;99.90
59282;DHT22;45054;52.062;10.010;2022-09-09T00:55:52;13.80;99.90
59282;DHT22;45054;52.062;10.010;2022-09-09T00:58:19;13.80;99.90
59282;DHT22;45054;52.062;10.010;2022-09-09T01:00:47;13.70;99.90
59282;DHT22;45054;52.062;10.010;2022-09-09T01:03:19;13.70;99.90
59282;DHT22;45054;52.062;10.010;2022-09-09T01:05:47;13.80;99.90
59282;DHT22;45054;52.062;10.010;2022-09-09T01:08:16;13.70;99.90
59282;DHT22;45054;52.062;10.010;2022-09-09T01:10:44;13.70;99.90
59282;DHT22;45054;52.062;10.010;2022-09-09T01:13:15;13.70;99.90
59282;DHT22;45054;52.062;10.010;2022-09-09T01:15:42;13.60;99.90
59282;DHT22;45054;52.062;10.010;2022-09-09T01:18:10;13.60;99.90
59282;DHT22;45054;52.062;10.010;2022-09-09T01:20:37;13.70;99.90
59282;DHT22;45054;52.062;10.010;2022-09-09T01:23:10;13.70;99.90
59282;DHT22;45054;52.062;10.010;2022-09-09T01:28:31;13.70;99.90
59282;DHT22;45054;52.062;10.010;2022-09-09T01:30:58;13.70;99.90
59282;DHT22;45054;52.062;10.010;2022-09-09T01:33:23;13.70;99.90
59282;DHT22;45054;52.062;10.010;2022-09-09T01:35:50;13.70;99.90
59282;DHT22;45054;52.062;10.010;2022-09-09T01:38:17;13.60;99.90
59282;DHT22;45054;52.062;10.010;2022-09-09T01:40:43;13.40;99.90
59282;DHT22;45054;52.062;10.010;2022-09-09T01:43:09;13.40;99.90
59282;DHT22;45054;52.062;10.010;2022-09-09T01:45:36;13.40;99.90
59282;DHT22;45054;52.062;10.010;2022-09-09T01:48:02;13.30;99.90
59282;DHT22;45054;52.062;10.010;2022-09-09T01:50:27;13.40;99.90
59282;DHT22;45054;52.062;10.010;2022-09-09T01:52:54;13.40;99.90
59282;DHT22;45054;52.062;10.010;2022-09-09T01:55:23;13.50;99.90
59282;DHT22;45054;52.062;10.010;2022-09-09T01:57:53;13.50;99.90
59282;DHT22;45054;52.062;10.010;2022-09-09T02:00:21;13.50;99.90
59282;DHT22;45054;52.062;10.010;2022-09-09T02:02:52;13.60;99.90
59282;DHT22;45054;52.062;10.010;2022-09-09T02:05:23;13.60;99.90
59282;DHT22;45054;52.062;10.010;2022-09-09T02:07:54;13.50;99.90
59282;DHT22;45054;52.062;10.010;2022-09-09T02:10:23;13.50;99.90
59282;DHT22;45054;52.062;10.010;2022-09-09T02:12:51;13.60;99.90
59282;DHT22;45054;52.062;10.010;2022-09-09T02:15:20;13.70;99.90
59282;DHT22;45054;52.062;10.010;2022-09-09T02:17:47;13.70;99.90
59282;DHT22;45054;52.062;10.010;2022-09-09T02:20:15;13.70;99.90
59282;DHT22;45054;52.062;10.010;2022-09-09T02:22:41;13.80;99.90
59282;DHT22;45054;52.062;10.010;2022-09-09T02:25:08;13.90;99.90
59282;DHT22;45054;52.062;10.010;2022-09-09T02:27:35;13.90;99.90
59282;DHT22;45054;52.062;10.010;2022-09-09T02:30:00;13.90;99.90
59282;DHT22;45054;52.062;10.010;2022-09-09T02:32:27;14.00;99.90
59282;DHT22;45054;52.062;10.010;2022-09-09T02:34:54;14.00;99.90
59282;DHT22;45054;52.062;10.010;2022-09-09T02:37:23;14.10;99.90
59282;DHT22;45054;52.062;10.010;2022-09-09T02:39:50;14.10;99.90
59282;DHT22;45054;52.062;10.010;2022-09-09T02:42:15;14.10;99.90
59282;DHT22;45054;52.062;10.010;2022-09-09T02:44:41;14.20;99.90
59282;DHT22;45054;52.062;10.010;2022-09-09T02:47:26;14.20;99.90
59282;DHT22;45054;52.062;10.010;2022-09-09T02:49:57;14.20;99.90
59282;DHT22;45054;52.062;10.010;2022-09-09T02:52:30;14.20;99.90
59282;DHT22;45054;52.062;10.010;2022-09-09T02:54:59;14.20;99.90
59282;DHT22;45054;52.062;10.010;2022-09-09T02:57:27;14.20;99.90
59282;DHT22;45054;52.062;10.010;2022-09-09T02:59:56;14.10;99.90
59282;DHT22;45054;52.062;10.010;2022-09-09T03:02:22;14.20;99.90
59282;DHT22;45054;52.062;10.010;2022-09-09T03:04:47;14.10;99.90
59282;DHT22;45054;52.062;10.010;2022-09-09T03:07:13;14.20;99.90
59282;DHT22;45054;52.062;10.010;2022-09-09T03:09:39;14.10;99.90
59282;DHT22;45054;52.062;10.010;2022-09-09T03:12:05;14.10;99.90
59282;DHT22;45054;52.062;10.010;2022-09-09T03:14:30;14.20;99.90
59282;DHT22;45054;52.062;10.010;2022-09-09T03:16:56;14.10;99.90
59282;DHT22;45054;52.062;10.010;2022-09-09T03:19:21;14.20;99.90
59282;DHT22;45054;52.062;10.010;2022-09-09T03:21:47;14.20;99.90
59282;DHT22;45054;52.062;10.010;2022-09-09T03:24:12;14.10;99.90
59282;DHT22;45054;52.062;10.010;2022-09-09T03:26:40;14.20;99.90
59282;DHT22;45054;52.062;10.010;2022-09-09T03:29:05;14.10;99.90
59282;DHT22;45054;52.062;10.010;2022-09-09T03:31:31;14.20;99.90
59282;DHT22;45054;52.062;10.010;2022-09-09T03:33:56;14.20;99.90
59282;DHT22;45054;52.062;10.010;2022-09-09T03:36:22;14.20;99.90
59282;DHT22;45054;52.062;10.010;2022-09-09T03:38:47;14.20;99.90
59282;DHT22;45054;52.062;10.010;2022-09-09T03:41:12;14.30;99.90
59282;DHT22;45054;52.062;10.010;2022-09-09T03:43:39;14.30;99.90
59282;DHT22;45054;52.062;10.010;2022-09-09T03:46:05;14.30;99.90
59282;DHT22;45054;52.062;10.010;2022-09-09T03:48:30;14.30;99.90
59282;DHT22;45054;52.062;10.010;2022-09-09T03:50:56;14.30;99.90
59282;DHT22;45054;52.062;10.010;2022-09-09T03:53:22;14.30;99.90
59282;DHT22;45054;52.062;10.010;2022-09-09T03:55:48;14.30;99.90
59282;DHT22;45054;52.062;10.010;2022-09-09T03:58:14;14.30;99.90
59282;DHT22;45054;52.062;10.010;2022-09-09T04:00:41;14.30;99.90
59282;DHT22;45054;52.062;10.010;2022-09-09T04:03:06;14.30;99.90
59282;DHT22;45054;52.062;10.010;2022-09-09T04:05:32;14.30;99.90
59282;DHT22;45054;52.062;10.010;2022-09-09T04:07:57;14.40;99.90
59282;DHT22;45054;52.062;10.010;2022-09-09T04:10:23;14.30;99.90
59282;DHT22;45054;52.062;10.010;2022-09-09T04:12:48;14.30;99.90
59282;DHT22;45054;52.062;10.010;2022-09-09T04:15:14;14.30;99.90
59282;DHT22;45054;52.062;10.010;2022-09-09T04:17:40;14.30;99.90
59282;DHT22;45054;52.062;10.010;2022-09-09T04:20:06;14.30;99.90
59282;DHT22;45054;52.062;10.010;2022-09-09T04:22:31;14.40;99.90
59282;DHT22;45054;52.062;10.010;2022-09-09T04:24:57;14.40;99.90
59282;DHT22;45054;52.062;10.010;2022-09-09T04:27:22;14.50;99.90
59282;DHT22;45054;52.062;10.010;2022-09-09T04:29:48;14.50;99.90
59282;DHT22;45054;52.062;10.010;2022-09-09T04:32:13;14.50;99.90
59282;DHT22;45054;52.062;10.010;2022-09-09T04:34:40;14.50;99.90
59282;DHT22;45054;52.062;10.010;2022-09-09T04:37:05;14.60;99.90
59282;DHT22;45054;52.062;10.010;2022-09-09T04:39:31;14.60;99.90
59282;DHT22;45054;52.062;10.010;2022-09-09T04:41:56;14.60;99.90
59282;DHT22;45054;52.062;10.010;2022-09-09T04:44:22;14.60;99.90
59282;DHT22;45054;52.062;10.010;2022-09-09T04:46:47;14.60;99.90
59282;DHT22;45054;52.062;10.010;2022-09-09T04:49:13;14.60;99.90
59282;DHT22;45054;52.062;10.010;2022-09-09T04:51:39;14.60;99.90
59282;DHT22;45054;52.062;10.010;2022-09-09T04:54:05;14.60;99.90
59282;DHT22;45054;52.062;10.010;2022-09-09T04:56:30;14.60;99.90
59282;DHT22;45054;52.062;10.010;2022-09-09T04:58:56;14.60;99.90
59282;DHT22;45054;52.062;10.010;2022-09-09T05:01:21;14.60;99.90
59282;DHT22;45054;52.062;10.010;2022-09-09T05:03:47;14.60;99.90
59282;DHT22;45054;52.062;10.010;2022-09-09T05:06:13;14.60;99.90
59282;DHT22;45054;52.062;10.010;2022-09-09T05:08:41;14.60;99.90
59282;DHT22;45054;52.062;10.010;2022-09-09T05:11:12;14.60;99.90
59282;DHT22;45054;52.062;10.010;2022-09-09T05:13:38;14.60;99.90
59282;DHT22;45054;52.062;10.010;2022-09-09T05:16:04;14.60;99.90
59282;DHT22;45054;52.062;10.010;2022-09-09T05:18:29;14.70;99.90
59282;DHT22;45054;52.062;10.010;2022-09-09T05:20:58;14.70;99.90
59282;DHT22;45054;52.062;10.010;2022-09-09T05:23:23;14.70;99.90
59282;DHT22;45054;52.062;10.010;2022-09-09T05:25:56;14.70;99.90
59282;DHT22;45054;52.062;10.010;2022-09-09T05:28:23;14.70;99.90
59282;DHT22;45054;52.062;10.010;2022-09-09T05:30:54;14.70;99.90
59282;DHT22;45054;52.062;10.010;2022-09-09T05:33:20;14.80;99.90
59282;DHT22;45054;52.062;10.010;2022-09-09T05:35:45;14.70;99.90
59282;DHT22;45054;52.062;10.010;2022-09-09T05:38:10;14.70;99.90
59282;DHT22;45054;52.062;10.010;2022-09-09T05:40:36;14.70;99.90
59282;DHT22;45054;52.062;10.010;2022-09-09T05:43:03;14.70;99.90
59282;DHT22;45054;52.062;10.010;2022-09-09T05:45:28;14.70;99.90
59282;DHT22;45054;52.062;10.010;2022-09-09T05:47:54;14.70;99.90
59282;DHT22;45054;52.062;10.010;2022-09-09T05:50:19;14.80;99.90
59282;DHT22;45054;52.062;10.010;2022-09-09T05:52:45;14.80;99.90
59282;DHT22;45054;52.062;10.010;2022-09-09T05:55:10;14.80;99.90
59282;DHT22;45054;52.062;10.010;2022-09-09T05:57:35;14.80;99.90
59282;DHT22;45054;52.062;10.010;2022-09-09T06:00:03;14.80;99.90
59282;DHT22;45054;52.062;10.010;2022-09-09T06:02:28;14.80;99.90
59282;DHT22;45054;52.062;10.010;2022-09-09T06:04:54;14.80;99.90
59282;DHT22;45054;52.062;10.010;2022-09-09T06:07:19;14.80;99.90
59282;DHT22;45054;52.062;10.010;2022-09-09T06:09:45;14.80;99.90
59282;DHT22;45054;52.062;10.010;2022-09-09T06:12:10;14.80;99.90
59282;DHT22;45054;52.062;10.010;2022-09-09T06:14:36;14.80;99.90
59282;DHT22;45054;52.062;10.010;2022-09-09T06:17:03;14.80;99.90
59282;DHT22;45054;52.062;10.010;2022-09-09T06:19:28;14.70;99.90
59282;DHT22;45054;52.062;10.010;2022-09-09T06:21:54;14.80;99.90
59282;DHT22;45054;52.062;10.010;2022-09-09T06:24:19;14.80;99.90
59282;DHT22;45054;52.062;10.010;2022-09-09T06:26:45;14.80;99.90
59282;DHT22;45054;52.062;10.010;2022-09-09T06:29:10;14.90;99.90
59282;DHT22;45054;52.062;10.010;2022-09-09T06:31:36;15.00;99.90
59282;DHT22;45054;52.062;10.010;2022-09-09T06:34:03;15.00;99.90
59282;DHT22;45054;52.062;10.010;2022-09-09T06:36:30;15.00;99.90
59282;DHT22;45054;52.062;10.010;2022-09-09T06:38:56;15.10;99.90
59282;DHT22;45054;52.062;10.010;2022-09-09T06:41:22;15.20;99.90
59282;DHT22;45054;52.062;10.010;2022-09-09T06:43:47;15.20;99.90
59282;DHT22;45054;52.062;10.010;2022-09-09T06:46:14;15.20;99.90
59282;DHT22;45054;52.062;10.010;2022-09-09T06:48:39;15.20;99.90
59282;DHT22;45054;52.062;10.010;2022-09-09T06:51:07;15.20;99.90
59282;DHT22;45054;52.062;10.010;2022-09-09T06:53:33;15.20;99.90
59282;DHT22;45054;52.062;10.010;2022-09-09T06:55:59;15.30;99.90
59282;DHT22;45054;52.062;10.010;2022-09-09T06:58:24;15.40;99.90
59282;DHT22;45054;52.062;10.010;2022-09-09T07:00:50;15.40;99.90
59282;DHT22;45054;52.062;10.010;2022-09-09T07:03:15;15.50;99.90
59282;DHT22;45054;52.062;10.010;2022-09-09T07:05:41;15.50;99.90
59282;DHT22;45054;52.062;10.010;2022-09-09T07:08:07;15.50;99.90
59282;DHT22;45054;52.062;10.010;2022-09-09T07:10:33;15.50;99.90
59282;DHT22;45054;52.062;10.010;2022-09-09T07:12:58;15.50;99.90
59282;DHT22;45054;52.062;10.010;2022-09-09T07:15:24;15.50;99.90
59282;DHT22;45054;52.062;10.010;2022-09-09T07:17:49;15.60;99.90
59282;DHT22;45054;52.062;10.010;2022-09-09T07:20:15;15.60;99.90
59282;DHT22;45054;52.062;10.010;2022-09-09T07:22:40;15.60;99.90
59282;DHT22;45054;52.062;10.010;2022-09-09T07:25:08;15.60;99.90
59282;DHT22;45054;52.062;10.010;2022-09-09T07:27:33;15.70;99.90
59282;DHT22;45054;52.062;10.010;2022-09-09T07:29:58;15.70;99.90
59282;DHT22;45054;52.062;10.010;2022-09-09T07:32:24;15.70;99.90
59282;DHT22;45054;52.062;10.010;2022-09-09T07:34:49;15.70;99.90
59282;DHT22;45054;52.062;10.010;2022-09-09T07:37:15;15.80;99.90
59282;DHT22;45054;52.062;10.010;2022-09-09T07:39:41;15.80;99.90
59282;DHT22;45054;52.062;10.010;2022-09-09T07:42:07;15.90;99.90
59282;DHT22;45054;52.062;10.010;2022-09-09T07:44:33;16.00;99.90
59282;DHT22;45054;52.062;10.010;2022-09-09T07:46:58;16.10;99.90
59282;DHT22;45054;52.062;10.010;2022-09-09T07:49:24;16.10;99.90
59282;DHT22;45054;52.062;10.010;2022-09-09T07:51:49;16.10;99.90
59282;DHT22;45054;52.062;10.010;2022-09-09T07:54:15;16.10;99.90
59282;DHT22;45054;52.062;10.010;2022-09-09T07:56:41;16.10;99.90
59282;DHT22;45054;52.062;10.010;2022-09-09T07:59:08;16.20;99.90
59282;DHT22;45054;52.062;10.010;2022-09-09T08:01:34;16.20;99.90
59282;DHT22;45054;52.062;10.010;2022-09-09T08:04:02;16.30;99.90
59282;DHT22;45054;52.062;10.010;2022-09-09T08:06:28;16.40;99.90
59282;DHT22;45054;52.062;10.010;2022-09-09T08:08:54;16.50;99.90
59282;DHT22;45054;52.062;10.010;2022-09-09T08:11:19;16.50;99.90
59282;DHT22;45054;52.062;10.010;2022-09-09T08:13:45;16.50;99.90
59282;DHT22;45054;52.062;10.010;2022-09-09T08:16:12;16.60;99.90
59282;DHT22;45054;52.062;10.010;2022-09-09T08:18:38;16.80;99.90
59282;DHT22;45054;52.062;10.010;2022-09-09T08:21:07;16.90;99.90
59282;DHT22;45054;52.062;10.010;2022-09-09T08:23:33;17.10;99.90
59282;DHT22;45054;52.062;10.010;2022-09-09T08:26:03;17.30;99.90
59282;DHT22;45054;52.062;10.010;2022-09-09T08:28:28;17.50;99.90
59282;DHT22;45054;52.062;10.010;2022-09-09T08:30:53;17.60;99.90
59282;DHT22;45054;52.062;10.010;2022-09-09T08:33:20;17.70;99.90
59282;DHT22;45054;52.062;10.010;2022-09-09T08:35:49;17.80;99.90
59282;DHT22;45054;52.062;10.010;2022-09-09T08:38:15;17.80;99.90
59282;DHT22;45054;52.062;10.010;2022-09-09T08:40:41;17.80;99.90
59282;DHT22;45054;52.062;10.010;2022-09-09T08:43:10;17.90;99.90
59282;DHT22;45054;52.062;10.010;2022-09-09T08:45:37;17.90;99.90
59282;DHT22;45054;52.062;10.010;2022-09-09T08:48:16;17.90;99.90
59282;DHT22;45054;52.062;10.010;2022-09-09T08:50:44;18.00;99.90
59282;DHT22;45054;52.062;10.010;2022-09-09T08:53:11;18.20;99.90
59282;DHT22;45054;52.062;10.010;2022-09-09T08:55:41;18.20;99.90
59282;DHT22;45054;52.062;10.010;2022-09-09T08:58:09;18.20;99.90
59282;DHT22;45054;52.062;10.010;2022-09-09T09:00:41;18.00;99.90
59282;DHT22;45054;52.062;10.010;2022-09-09T09:03:11;18.00;99.90
59282;DHT22;45054;52.062;10.010;2022-09-09T09:05:42;18.10;99.90
59282;DHT22;45054;52.062;10.010;2022-09-09T09:08:14;18.20;99.90
59282;DHT22;45054;52.062;10.010;2022-09-09T09:10:45;18.50;99.90
59282;DHT22;45054;52.062;10.010;2022-09-09T09:13:15;18.60;99.90
59282;DHT22;45054;52.062;10.010;2022-09-09T09:15:42;18.70;99.90
59282;DHT22;45054;52.062;10.010;2022-09-09T09:18:10;18.80;99.90
59282;DHT22;45054;52.062;10.010;2022-09-09T09:20:37;18.90;99.90
59282;DHT22;45054;52.062;10.010;2022-09-09T09:23:06;18.90;99.90
59282;DHT22;45054;52.062;10.010;2022-09-09T09:25:38;19.10;99.90
59282;DHT22;45054;52.062;10.010;2022-09-09T09:28:10;19.20;99.90
59282;DHT22;45054;52.062;10.010;2022-09-09T09:30:38;19.20;99.90
59282;DHT22;45054;52.062;10.010;2022-09-09T09:33:05;19.00;99.90
59282;DHT22;45054;52.062;10.010;2022-09-09T09:35:34;18.90;99.90
59282;DHT22;45054;52.062;10.010;2022-09-09T09:37:59;18.90;99.90
59282;DHT22;45054;52.062;10.010;2022-09-09T09:40:25;18.80;99.90
59282;DHT22;45054;52.062;10.010;2022-09-09T09:42:52;18.80;99.90
59282;DHT22;45054;52.062;10.010;2022-09-09T09:45:23;18.80;99.90
59282;DHT22;45054;52.062;10.010;2022-09-09T09:47:57;18.80;99.90
59282;DHT22;45054;52.062;10.010;2022-09-09T09:50:22;18.80;99.90
59282;DHT22;45054;52.062;10.010;2022-09-09T09:52:53;18.90;99.90
59282;DHT22;45054;52.062;10.010;2022-09-09T09:55:19;18.90;99.90
59282;DHT22;45054;52.062;10.010;2022-09-09T09:57:44;18.80;99.90
59282;DHT22;45054;52.062;10.010;2022-09-09T10:00:13;18.80;99.90
59282;DHT22;45054;52.062;10.010;2022-09-09T10:02:40;18.80;99.90
59282;DHT22;45054;52.062;10.010;2022-09-09T10:05:08;18.80;99.90
59282;DHT22;45054;52.062;10.010;2022-09-09T10:07:39;18.70;99.90
59282;DHT22;45054;52.062;10.010;2022-09-09T10:10:05;18.60;99.90
59282;DHT22;45054;52.062;10.010;2022-09-09T10:12:37;18.60;99.90
59282;DHT22;45054;52.062;10.010;2022-09-09T10:15:12;18.60;99.90
59282;DHT22;45054;52.062;10.010;2022-09-09T10:17:44;18.60;99.90
59282;DHT22;45054;52.062;10.010;2022-09-09T10:20:19;18.60;99.90
59282;DHT22;45054;52.062;10.010;2022-09-09T10:22:50;18.60;99.90
59282;DHT22;45054;52.062;10.010;2022-09-09T10:25:24;18.70;99.90
59282;DHT22;45054;52.062;10.010;2022-09-09T10:27:55;18.80;99.90
59282;DHT22;45054;52.062;10.010;2022-09-09T10:30:26;18.90;99.90
59282;DHT22;45054;52.062;10.010;2022-09-09T10:32:59;19.10;99.90
59282;DHT22;45054;52.062;10.010;2022-09-09T10:35:29;19.40;99.90
59282;DHT22;45054;52.062;10.010;2022-09-09T10:38:02;19.60;99.90
59282;DHT22;45054;52.062;10.010;2022-09-09T10:40:31;19.80;99.90
59282;DHT22;45054;52.062;10.010;2022-09-09T10:42:59;20.10;99.90
59282;DHT22;45054;52.062;10.010;2022-09-09T10:45:27;20.30;99.90
59282;DHT22;45054;52.062;10.010;2022-09-09T10:48:02;20.50;99.90
59282;DHT22;45054;52.062;10.010;2022-09-09T10:50:35;20.40;99.90
59282;DHT22;45054;52.062;10.010;2022-09-09T10:53:08;20.40;99.90
59282;DHT22;45054;52.062;10.010;2022-09-09T10:55:35;20.40;99.90
59282;DHT22;45054;52.062;10.010;2022-09-09T10:58:03;20.40;99.90
59282;DHT22;45054;52.062;10.010;2022-09-09T11:00:34;20.40;99.90
59282;DHT22;45054;52.062;10.010;2022-09-09T11:03:02;20.50;99.90
59282;DHT22;45054;52.062;10.010;2022-09-09T11:05:29;20.50;99.90
59282;DHT22;45054;52.062;10.010;2022-09-09T11:07:56;20.60;99.90
59282;DHT22;45054;52.062;10.010;2022-09-09T11:10:24;20.60;99.90
59282;DHT22;45054;52.062;10.010;2022-09-09T11:12:50;20.40;99.90
59282;DHT22;45054;52.062;10.010;2022-09-09T11:15:18;20.40;99.90
59282;DHT22;45054;52.062;10.010;2022-09-09T11:17:46;20.30;99.90
59282;DHT22;45054;52.062;10.010;2022-09-09T11:20:15;20.20;99.90
59282;DHT22;45054;52.062;10.010;2022-09-09T11:22:43;20.20;99.90
59282;DHT22;45054;52.062;10.010;2022-09-09T11:25:14;20.20;99.90
59282;DHT22;45054;52.062;10.010;2022-09-09T11:27:41;20.10;99.90
59282;DHT22;45054;52.062;10.010;2022-09-09T11:30:14;20.10;99.90
59282;DHT22;45054;52.062;10.010;2022-09-09T11:35:30;20.10;99.90
59282;DHT22;45054;52.062;10.010;2022-09-09T11:38:02;20.10;99.90
59282;DHT22;45054;52.062;10.010;2022-09-09T11:40:31;20.20;99.90
59282;DHT22;45054;52.062;10.010;2022-09-09T11:43:03;20.30;99.90
59282;DHT22;45054;52.062;10.010;2022-09-09T11:45:30;20.40;99.90
59282;DHT22;45054;52.062;10.010;2022-09-09T11:47:56;20.40;99.90
59282;DHT22;45054;52.062;10.010;2022-09-09T11:50:30;20.60;99.90
59282;DHT22;45054;52.062;10.010;2022-09-09T11:53:16;21.00;99.90
59282;DHT22;45054;52.062;10.010;2022-09-09T11:55:42;21.50;99.90
59282;DHT22;45054;52.062;10.010;2022-09-09T11:58:14;21.80;99.90
59282;DHT22;45054;52.062;10.010;2022-09-09T12:00:41;21.80;99.90
59282;DHT22;45054;52.062;10.010;2022-09-09T12:03:08;22.00;99.90
59282;DHT22;45054;52.062;10.010;2022-09-09T12:05:55;22.10;99.90
59282;DHT22;45054;52.062;10.010;2022-09-09T12:08:22;22.30;99.90
59282;DHT22;45054;52.062;10.010;2022-09-09T12:10:53;22.50;99.90
59282;DHT22;45054;52.062;10.010;2022-09-09T12:13:19;22.60;99.90
59282;DHT22;45054;52.062;10.010;2022-09-09T12:15:48;22.70;99.90
59282;DHT22;45054;52.062;10.010;2022-09-09T12:18:14;22.80;99.90
59282;DHT22;45054;52.062;10.010;2022-09-09T12:20:40;22.80;99.90
59282;DHT22;45054;52.062;10.010;2022-09-09T12:23:29;22.60;99.90
59282;DHT22;45054;52.062;10.010;2022-09-09T12:25:58;22.10;99.90
59282;DHT22;45054;52.062;10.010;2022-09-09T12:28:25;21.70;99.90
59282;DHT22;45054;52.062;10.010;2022-09-09T12:30:54;21.40;99.90
59282;DHT22;45054;52.062;10.010;2022-09-09T12:33:21;21.20;99.90
59282;DHT22;45054;52.062;10.010;2022-09-09T12:35:49;21.00;99.90
59282;DHT22;45054;52.062;10.010;2022-09-09T12:38:17;21.00;99.90
59282;DHT22;45054;52.062;10.010;2022-09-09T12:40:54;21.00;99.90
59282;DHT22;45054;52.062;10.010;2022-09-09T12:43:21;20.90;99.90
59282;DHT22;45054;52.062;10.010;2022-09-09T12:45:46;20.90;99.90
59282;DHT22;45054;52.062;10.010;2022-09-09T12:48:12;20.90;99.90
59282;DHT22;45054;52.062;10.010;2022-09-09T12:50:38;20.80;99.90
59282;DHT22;45054;52.062;10.010;2022-09-09T12:53:09;20.70;99.90
59282;DHT22;45054;52.062;10.010;2022-09-09T12:55:35;20.70;99.90
59282;DHT22;45054;52.062;10.010;2022-09-09T12:58:03;20.70;99.90
59282;DHT22;45054;52.062;10.010;2022-09-09T13:00:28;20.50;99.90
59282;DHT22;45054;52.062;10.010;2022-09-09T13:02:54;20.40;99.90
59282;DHT22;45054;52.062;10.010;2022-09-09T13:05:21;20.50;99.90
59282;DHT22;45054;52.062;10.010;2022-09-09T13:07:47;20.60;99.90
59282;DHT22;45054;52.062;10.010;2022-09-09T13:10:13;20.80;99.90
59282;DHT22;45054;52.062;10.010;2022-09-09T13:12:39;21.10;99.90
59282;DHT22;45054;52.062;10.010;2022-09-09T13:15:10;21.40;99.90
59282;DHT22;45054;52.062;10.010;2022-09-09T13:17:39;21.40;99.90
59282;DHT22;45054;52.062;10.010;2022-09-09T13:20:05;21.50;99.90
59282;DHT22;45054;52.062;10.010;2022-09-09T13:22:31;21.60;99.90
59282;DHT22;45054;52.062;10.010;2022-09-09T13:25:01;21.50;99.90
59282;DHT22;45054;52.062;10.010;2022-09-09T13:27:28;21.60;99.90
59282;DHT22;45054;52.062;10.010;2022-09-09T13:29:54;21.50;99.90
59282;DHT22;45054;52.062;10.010;2022-09-09T13:32:22;21.50;99.90
59282;DHT22;45054;52.062;10.010;2022-09-09T13:34:50;21.40;99.90
59282;DHT22;45054;52.062;10.010;2022-09-09T13:37:17;21.10;99.90
59282;DHT22;45054;52.062;10.010;2022-09-09T13:39:50;20.90;99.90
59282;DHT22;45054;52.062;10.010;2022-09-09T13:42:19;20.80;99.90
59282;DHT22;45054;52.062;10.010;2022-09-09T13:44:47;20.60;99.90
59282;DHT22;45054;52.062;10.010;2022-09-09T13:47:17;20.50;99.90
59282;DHT22;45054;52.062;10.010;2022-09-09T13:49:44;20.50;99.90
59282;DHT22;45054;52.062;10.010;2022-09-09T13:52:10;20.60;99.90
59282;DHT22;45054;52.062;10.010;2022-09-09T13:54:36;20.70;99.90
59282;DHT22;45054;52.062;10.010;2022-09-09T13:57:01;20.80;99.90
59282;DHT22;45054;52.062;10.010;2022-09-09T13:59:27;20.80;99.90
59282;DHT22;45054;52.062;10.010;2022-09-09T14:01:52;20.80;99.90
59282;DHT22;45054;52.062;10.010;2022-09-09T14:04:18;20.80;99.90
59282;DHT22;45054;52.062;10.010;2022-09-09T14:06:45;20.70;99.90
59282;DHT22;45054;52.062;10.010;2022-09-09T14:09:11;20.60;99.90
59282;DHT22;45054;52.062;10.010;2022-09-09T14:11:37;20.50;99.90
59282;DHT22;45054;52.062;10.010;2022-09-09T14:14:03;20.40;99.90
59282;DHT22;45054;52.062;10.010;2022-09-09T14:16:28;20.40;99.90
59282;DHT22;45054;52.062;10.010;2022-09-09T14:18:54;20.30;99.90
59282;DHT22;45054;52.062;10.010;2022-09-09T14:21:19;20.30;99.90
59282;DHT22;45054;52.062;10.010;2022-09-09T14:23:46;20.30;99.90
59282;DHT22;45054;52.062;10.010;2022-09-09T14:26:12;20.20;99.90
59282;DHT22;45054;52.062;10.010;2022-09-09T14:28:40;20.20;99.90
59282;DHT22;45054;52.062;10.010;2022-09-09T14:31:06;20.10;99.90
59282;DHT22;45054;52.062;10.010;2022-09-09T14:33:31;20.00;99.90
59282;DHT22;45054;52.062;10.010;2022-09-09T14:35:57;20.00;99.90
59282;DHT22;45054;52.062;10.010;2022-09-09T14:38:22;20.10;99.90
59282;DHT22;45054;52.062;10.010;2022-09-09T14:40:49;20.50;99.90
59282;DHT22;45054;52.062;10.010;2022-09-09T14:43:14;21.00;99.90
59282;DHT22;45054;52.062;10.010;2022-09-09T14:45:40;21.20;99.90
59282;DHT22;45054;52.062;10.010;2022-09-09T14:48:05;22.00;99.90
59282;DHT22;45054;52.062;10.010;2022-09-09T14:50:31;23.20;99.90
59282;DHT22;45054;52.062;10.010;2022-09-09T14:52:56;24.80;99.90
59282;DHT22;45054;52.062;10.010;2022-09-09T14:55:22;26.40;99.90
59282;DHT22;45054;52.062;10.010;2022-09-09T14:57:49;27.80;99.90
59282;DHT22;45054;52.062;10.010;2022-09-09T15:00:14;29.10;99.90
59282;DHT22;45054;52.062;10.010;2022-09-09T15:02:40;29.60;99.90
59282;DHT22;45054;52.062;10.010;2022-09-09T15:05:05;30.10;99.90
59282;DHT22;45054;52.062;10.010;2022-09-09T15:07:31;30.80;99.40
59282;DHT22;45054;52.062;10.010;2022-09-09T15:09:56;31.80;98.70
59282;DHT22;45054;52.062;10.010;2022-09-09T15:12:22;31.50;96.00
59282;DHT22;45054;52.062;10.010;2022-09-09T15:14:48;30.50;96.60
59282;DHT22;45054;52.062;10.010;2022-09-09T15:17:14;29.30;97.30
59282;DHT22;45054;52.062;10.010;2022-09-09T15:19:39;28.40;98.80
59282;DHT22;45054;52.062;10.010;2022-09-09T15:22:05;28.10;99.90